sensor_id;sensor_type;location;lat;lon;timestamp;temperature;humidity
7341;DHT22;6870;50.944;6.932;2023-06-14T00:02:07;27.90;18.70
7341;DHT22;6870;50.944;6.932;2023-06-14T00:04:35;27.50;18.50
7341;DHT22;6870;50.944;6.932;2023-06-14T00:07:05;27.40;18.50
7341;DHT22;6870;50.944;6.932;2023-06-14T00:09:36;27.70;18.70
7341;DHT22;6870;50.944;6.932;2023-06-14T00:12:04;27.50;18.60
7341;DHT22;6870;50.944;6.932;2023-06-14T00:14:33;27.60;18.80
7341;DHT22;6870;50.944;6.932;2023-06-14T00:17:01;27.60;19.50
7341;DHT22;6870;50.944;6.932;2023-06-14T00:19:30;27.60;18.90
7341;DHT22;6870;50.944;6.932;2023-06-14T00:21:59;27.40;18.80
7341;DHT22;6870;50.944;6.932;2023-06-14T00:24:27;27.10;18.80
7341;DHT22;6870;50.944;6.932;2023-06-14T00:26:57;27.40;19.10
7341;DHT22;6870;50.944;6.932;2023-06-14T00:29:25;27.60;19.40
7341;DHT22;6870;50.944;6.932;2023-06-14T00:31:53;27.70;19.40
7341;DHT22;6870;50.944;6.932;2023-06-14T00:34:21;27.30;19.10
7341;DHT22;6870;50.944;6.932;2023-06-14T00:36:49;27.60;19.40
7341;DHT22;6870;50.944;6.932;2023-06-14T00:39:17;27.30;19.20
7341;DHT22;6870;50.944;6.932;2023-06-14T00:41:45;27.80;19.50
7341;DHT22;6870;50.944;6.932;2023-06-14T00:44:17;27.60;19.50
7341;DHT22;6870;50.944;6.932;2023-06-14T00:46:45;27.20;19.10
7341;DHT22;6870;50.944;6.932;2023-06-14T00:49:14;27.60;19.10
7341;DHT22;6870;50.944;6.932;2023-06-14T00:51:43;27.10;18.80
7341;DHT22;6870;50.944;6.932;2023-06-14T00:54:12;27.40;19.00
7341;DHT22;6870;50.944;6.932;2023-06-14T00:56:40;27.30;18.80
7341;DHT22;6870;50.944;6.932;2023-06-14T00:59:09;27.10;18.60
7341;DHT22;6870;50.944;6.932;2023-06-14T01:01:39;27.10;18.50
7341;DHT22;6870;50.944;6.932;2023-06-14T01:04:07;27.40;18.60
7341;DHT22;6870;50.944;6.932;2023-06-14T01:06:41;27.20;18.40
7341;DHT22;6870;50.944;6.932;2023-06-14T01:09:18;27.10;18.50
7341;DHT22;6870;50.944;6.932;2023-06-14T01:11:59;27.50;18.70
7341;DHT22;6870;50.944;6.932;2023-06-14T01:14:31;27.70;18.90
7341;DHT22;6870;50.944;6.932;2023-06-14T01:17:02;27.50;18.70
7341;DHT22;6870;50.944;6.932;2023-06-14T01:19:32;27.50;18.80
7341;DHT22;6870;50.944;6.932;2023-06-14T01:22:01;27.20;18.60
7341;DHT22;6870;50.944;6.932;2023-06-14T01:24:31;27.10;18.50
7341;DHT22;6870;50.944;6.932;2023-06-14T01:27:02;27.30;18.60
7341;DHT22;6870;50.944;6.932;2023-06-14T01:29:30;27.00;18.50
7341;DHT22;6870;50.944;6.932;2023-06-14T01:32:00;27.40;18.70
7341;DHT22;6870;50.944;6.932;2023-06-14T01:34:28;27.40;18.80
7341;DHT22;6870;50.944;6.932;2023-06-14T01:36:57;27.30;18.70
7341;DHT22;6870;50.944;6.932;2023-06-14T01:39:28;27.00;18.60
7341;DHT22;6870;50.944;6.932;2023-06-14T01:41:58;27.30;18.80
7341;DHT22;6870;50.944;6.932;2023-06-14T01:44:28;27.10;18.70
7341;DHT22;6870;50.944;6.932;2023-06-14T01:46:57;26.90;18.60
7341;DHT22;6870;50.944;6.932;2023-06-14T01:49:26;27.30;18.80
7341;DHT22;6870;50.944;6.932;2023-06-14T01:51:54;26.90;18.60
7341;DHT22;6870;50.944;6.932;2023-06-14T01:54:22;27.20;18.80
7341;DHT22;6870;50.944;6.932;2023-06-14T01:56:52;27.10;18.90
7341;DHT22;6870;50.944;6.932;2023-06-14T01:59:22;26.80;18.80
7341;DHT22;6870;50.944;6.932;2023-06-14T02:01:50;27.00;18.90
7341;DHT22;6870;50.944;6.932;2023-06-14T02:04:18;27.20;19.10
7341;DHT22;6870;50.944;6.932;2023-06-14T02:06:46;27.40;19.30
7341;DHT22;6870;50.944;6.932;2023-06-14T02:09:14;26.80;18.90
7341;DHT22;6870;50.944;6.932;2023-06-14T02:11:42;27.30;19.90
7341;DHT22;6870;50.944;6.932;2023-06-14T02:14:10;27.30;19.30
7341;DHT22;6870;50.944;6.932;2023-06-14T02:16:39;26.90;19.10
7341;DHT22;6870;50.944;6.932;2023-06-14T02:19:15;27.40;19.50
7341;DHT22;6870;50.944;6.932;2023-06-14T02:21:44;27.10;19.40
7341;DHT22;6870;50.944;6.932;2023-06-14T02:24:12;27.20;19.50
7341;DHT22;6870;50.944;6.932;2023-06-14T02:26:41;27.50;19.60
7341;DHT22;6870;50.944;6.932;2023-06-14T02:29:09;27.30;19.60
7341;DHT22;6870;50.944;6.932;2023-06-14T02:31:40;26.90;19.50
7341;DHT22;6870;50.944;6.932;2023-06-14T02:34:08;26.90;19.50
7341;DHT22;6870;50.944;6.932;2023-06-14T02:36:37;27.20;19.60
7341;DHT22;6870;50.944;6.932;2023-06-14T02:39:09;26.80;19.40
7341;DHT22;6870;50.944;6.932;2023-06-14T02:41:37;27.20;19.60
7341;DHT22;6870;50.944;6.932;2023-06-14T02:44:06;26.90;19.50
7341;DHT22;6870;50.944;6.932;2023-06-14T02:46:35;27.00;19.50
7341;DHT22;6870;50.944;6.932;2023-06-14T02:49:04;27.10;19.60
7341;DHT22;6870;50.944;6.932;2023-06-14T02:51:32;27.00;19.50
7341;DHT22;6870;50.944;6.932;2023-06-14T02:54:01;26.90;19.50
7341;DHT22;6870;50.944;6.932;2023-06-14T02:56:29;27.10;19.60
7341;DHT22;6870;50.944;6.932;2023-06-14T02:58:57;27.10;19.60
7341;DHT22;6870;50.944;6.932;2023-06-14T03:01:27;27.30;19.80
7341;DHT22;6870;50.944;6.932;2023-06-14T03:04:01;27.40;19.90
7341;DHT22;6870;50.944;6.932;2023-06-14T03:06:31;27.00;19.70
7341;DHT22;6870;50.944;6.932;2023-06-14T03:09:00;27.00;19.70
7341;DHT22;6870;50.944;6.932;2023-06-14T03:11:31;27.00;19.70
7341;DHT22;6870;50.944;6.932;2023-06-14T03:14:00;26.80;19.60
7341;DHT22;6870;50.944;6.932;2023-06-14T03:16:30;27.00;19.80
7341;DHT22;6870;50.944;6.932;2023-06-14T03:18:58;26.60;19.60
7341;DHT22;6870;50.944;6.932;2023-06-14T03:21:26;26.90;19.70
7341;DHT22;6870;50.944;6.932;2023-06-14T03:23:56;27.00;19.80
7341;DHT22;6870;50.944;6.932;2023-06-14T03:26:24;27.30;20.00
7341;DHT22;6870;50.944;6.932;2023-06-14T03:28:52;27.30;20.00
7341;DHT22;6870;50.944;6.932;2023-06-14T03:31:21;27.10;19.90
7341;DHT22;6870;50.944;6.932;2023-06-14T03:33:50;27.00;19.90
7341;DHT22;6870;50.944;6.932;2023-06-14T03:36:19;27.00;19.90
7341;DHT22;6870;50.944;6.932;2023-06-14T03:38:47;27.00;20.10
7341;DHT22;6870;50.944;6.932;2023-06-14T03:41:16;26.70;20.00
7341;DHT22;6870;50.944;6.932;2023-06-14T03:43:44;27.00;20.20
7341;DHT22;6870;50.944;6.932;2023-06-14T03:46:12;26.90;20.00
7341;DHT22;6870;50.944;6.932;2023-06-14T03:48:40;26.80;20.70
7341;DHT22;6870;50.944;6.932;2023-06-14T03:51:08;26.80;20.00
7341;DHT22;6870;50.944;6.932;2023-06-14T03:53:36;26.60;19.90
7341;DHT22;6870;50.944;6.932;2023-06-14T03:56:26;26.90;20.00
7341;DHT22;6870;50.944;6.932;2023-06-14T03:58:54;26.80;20.00
7341;DHT22;6870;50.944;6.932;2023-06-14T04:01:22;27.00;20.10
7341;DHT22;6870;50.944;6.932;2023-06-14T04:03:56;26.90;20.10
7341;DHT22;6870;50.944;6.932;2023-06-14T04:06:25;27.10;20.10
7341;DHT22;6870;50.944;6.932;2023-06-14T04:08:59;26.80;20.00
7341;DHT22;6870;50.944;6.932;2023-06-14T04:11:32;26.90;20.00
7341;DHT22;6870;50.944;6.932;2023-06-14T04:14:02;27.10;20.20
7341;DHT22;6870;50.944;6.932;2023-06-14T04:16:30;27.00;20.10
7341;DHT22;6870;50.944;6.932;2023-06-14T04:18:58;26.90;20.20
7341;DHT22;6870;50.944;6.932;2023-06-14T04:21:26;26.90;20.00
7341;DHT22;6870;50.944;6.932;2023-06-14T04:23:55;27.10;20.20
7341;DHT22;6870;50.944;6.932;2023-06-14T04:26:24;26.90;20.00
7341;DHT22;6870;50.944;6.932;2023-06-14T04:28:57;27.00;20.10
7341;DHT22;6870;50.944;6.932;2023-06-14T04:31:29;27.00;20.10
7341;DHT22;6870;50.944;6.932;2023-06-14T04:34:00;26.90;20.00
7341;DHT22;6870;50.944;6.932;2023-06-14T04:36:32;27.30;20.20
7341;DHT22;6870;50.944;6.932;2023-06-14T04:39:03;27.00;20.00
7341;DHT22;6870;50.944;6.932;2023-06-14T04:41:31;27.30;20.40
7341;DHT22;6870;50.944;6.932;2023-06-14T04:44:01;26.90;20.10
7341;DHT22;6870;50.944;6.932;2023-06-14T04:46:30;27.00;20.10
7341;DHT22;6870;50.944;6.932;2023-06-14T04:48:59;26.90;20.10
7341;DHT22;6870;50.944;6.932;2023-06-14T04:51:29;27.10;20.30
7341;DHT22;6870;50.944;6.932;2023-06-14T04:53:57;27.10;20.20
7341;DHT22;6870;50.944;6.932;2023-06-14T04:56:26;27.00;20.20
7341;DHT22;6870;50.944;6.932;2023-06-14T04:58:55;27.20;20.40
7341;DHT22;6870;50.944;6.932;2023-06-14T05:01:25;27.10;20.60
7341;DHT22;6870;50.944;6.932;2023-06-14T05:03:53;26.90;20.50
7341;DHT22;6870;50.944;6.932;2023-06-14T05:06:21;27.30;20.70
7341;DHT22;6870;50.944;6.932;2023-06-14T05:08:49;27.20;20.60
7341;DHT22;6870;50.944;6.932;2023-06-14T05:11:17;27.40;20.70
7341;DHT22;6870;50.944;6.932;2023-06-14T05:13:45;27.00;20.30
7341;DHT22;6870;50.944;6.932;2023-06-14T05:16:14;27.00;20.30
7341;DHT22;6870;50.944;6.932;2023-06-14T05:18:47;27.40;20.50
7341;DHT22;6870;50.944;6.932;2023-06-14T05:21:15;27.20;20.50
7341;DHT22;6870;50.944;6.932;2023-06-14T05:23:44;26.90;20.40
7341;DHT22;6870;50.944;6.932;2023-06-14T05:26:13;27.00;20.50
7341;DHT22;6870;50.944;6.932;2023-06-14T05:28:41;26.90;20.40
7341;DHT22;6870;50.944;6.932;2023-06-14T05:31:09;27.00;20.70
7341;DHT22;6870;50.944;6.932;2023-06-14T05:33:37;27.30;21.00
7341;DHT22;6870;50.944;6.932;2023-06-14T05:36:07;27.40;21.70
7341;DHT22;6870;50.944;6.932;2023-06-14T05:38:34;27.20;20.70
7341;DHT22;6870;50.944;6.932;2023-06-14T05:41:02;27.30;20.50
7341;DHT22;6870;50.944;6.932;2023-06-14T05:43:31;27.30;19.80
7341;DHT22;6870;50.944;6.932;2023-06-14T05:45:59;27.20;19.20
7341;DHT22;6870;50.944;6.932;2023-06-14T05:48:28;26.90;19.00
7341;DHT22;6870;50.944;6.932;2023-06-14T05:50:59;27.20;18.60
7341;DHT22;6870;50.944;6.932;2023-06-14T05:53:28;27.20;18.60
7341;DHT22;6870;50.944;6.932;2023-06-14T05:55:56;27.50;18.20
7341;DHT22;6870;50.944;6.932;2023-06-14T05:58:24;26.90;18.20
7341;DHT22;6870;50.944;6.932;2023-06-14T06:00:52;27.30;18.40
7341;DHT22;6870;50.944;6.932;2023-06-14T06:03:21;27.00;18.20
7341;DHT22;6870;50.944;6.932;2023-06-14T06:05:49;27.00;18.10
7341;DHT22;6870;50.944;6.932;2023-06-14T06:08:17;27.40;18.20
7341;DHT22;6870;50.944;6.932;2023-06-14T06:10:47;27.40;18.20
7341;DHT22;6870;50.944;6.932;2023-06-14T06:13:15;27.20;17.90
7341;DHT22;6870;50.944;6.932;2023-06-14T06:15:43;27.50;17.80
7341;DHT22;6870;50.944;6.932;2023-06-14T06:18:11;27.30;17.80
7341;DHT22;6870;50.944;6.932;2023-06-14T06:20:39;27.40;17.70
7341;DHT22;6870;50.944;6.932;2023-06-14T06:23:07;26.90;17.40
7341;DHT22;6870;50.944;6.932;2023-06-14T06:25:36;26.90;17.10
7341;DHT22;6870;50.944;6.932;2023-06-14T06:28:06;27.00;16.80
7341;DHT22;6870;50.944;6.932;2023-06-14T06:30:34;27.10;13.70
7341;DHT22;6870;50.944;6.932;2023-06-14T06:33:02;27.00;15.50
7341;DHT22;6870;50.944;6.932;2023-06-14T06:35:30;26.90;15.40
7341;DHT22;6870;50.944;6.932;2023-06-14T06:37:59;27.00;15.50
7341;DHT22;6870;50.944;6.932;2023-06-14T06:40:28;27.00;12.90
7341;DHT22;6870;50.944;6.932;2023-06-14T06:42:56;26.90;11.10
7341;DHT22;6870;50.944;6.932;2023-06-14T06:45:25;26.90;10.00
7341;DHT22;6870;50.944;6.932;2023-06-14T06:47:53;26.80;13.10
7341;DHT22;6870;50.944;6.932;2023-06-14T06:50:22;26.80;12.60
7341;DHT22;6870;50.944;6.932;2023-06-14T06:52:51;26.90;14.10
7341;DHT22;6870;50.944;6.932;2023-06-14T06:55:20;27.00;13.50
7341;DHT22;6870;50.944;6.932;2023-06-14T06:57:48;27.00;13.10
7341;DHT22;6870;50.944;6.932;2023-06-14T07:00:19;27.10;13.10
7341;DHT22;6870;50.944;6.932;2023-06-14T07:02:49;27.00;13.40
7341;DHT22;6870;50.944;6.932;2023-06-14T07:05:18;27.00;13.00
7341;DHT22;6870;50.944;6.932;2023-06-14T07:07:46;27.30;13.00
7341;DHT22;6870;50.944;6.932;2023-06-14T07:10:14;26.90;13.10
7341;DHT22;6870;50.944;6.932;2023-06-14T07:12:42;27.00;12.70
7341;DHT22;6870;50.944;6.932;2023-06-14T07:15:10;27.10;11.60
7341;DHT22;6870;50.944;6.932;2023-06-14T07:17:39;27.50;12.30
7341;DHT22;6870;50.944;6.932;2023-06-14T07:20:10;27.30;11.80
7341;DHT22;6870;50.944;6.932;2023-06-14T07:22:39;27.10;11.30
7341;DHT22;6870;50.944;6.932;2023-06-14T07:25:09;27.00;11.40
7341;DHT22;6870;50.944;6.932;2023-06-14T07:27:39;26.90;11.30
7341;DHT22;6870;50.944;6.932;2023-06-14T07:30:08;26.90;11.30
7341;DHT22;6870;50.944;6.932;2023-06-14T07:32:37;27.10;10.10
7341;DHT22;6870;50.944;6.932;2023-06-14T07:35:06;27.00;10.00
7341;DHT22;6870;50.944;6.932;2023-06-14T07:37:35;27.10;10.80
7341;DHT22;6870;50.944;6.932;2023-06-14T07:40:04;26.70;9.90
7341;DHT22;6870;50.944;6.932;2023-06-14T07:42:34;26.80;9.90
7341;DHT22;6870;50.944;6.932;2023-06-14T07:45:02;26.70;9.90
7341;DHT22;6870;50.944;6.932;2023-06-14T07:47:31;26.60;9.50
7341;DHT22;6870;50.944;6.932;2023-06-14T07:49:59;27.00;9.30
7341;DHT22;6870;50.944;6.932;2023-06-14T07:52:28;26.90;10.00
7341;DHT22;6870;50.944;6.932;2023-06-14T07:54:57;26.80;8.50
7341;DHT22;6870;50.944;6.932;2023-06-14T07:57:25;26.70;8.20
7341;DHT22;6870;50.944;6.932;2023-06-14T07:59:53;26.70;9.10
7341;DHT22;6870;50.944;6.932;2023-06-14T08:02:21;27.10;8.90
7341;DHT22;6870;50.944;6.932;2023-06-14T08:04:50;26.90;8.80
7341;DHT22;6870;50.944;6.932;2023-06-14T08:07:19;27.00;8.50
7341;DHT22;6870;50.944;6.932;2023-06-14T08:09:47;27.00;8.00
7341;DHT22;6870;50.944;6.932;2023-06-14T08:12:17;26.50;8.00
7341;DHT22;6870;50.944;6.932;2023-06-14T08:14:45;26.90;7.90
7341;DHT22;6870;50.944;6.932;2023-06-14T08:17:21;26.70;8.10
7341;DHT22;6870;50.944;6.932;2023-06-14T08:19:49;26.90;7.80
7341;DHT22;6870;50.944;6.932;2023-06-14T08:22:17;26.80;7.10
7341;DHT22;6870;50.944;6.932;2023-06-14T08:24:46;27.00;7.30
7341;DHT22;6870;50.944;6.932;2023-06-14T08:27:14;27.00;6.40
7341;DHT22;6870;50.944;6.932;2023-06-14T08:29:43;27.20;6.60
7341;DHT22;6870;50.944;6.932;2023-06-14T08:32:11;27.00;6.00
7341;DHT22;6870;50.944;6.932;2023-06-14T08:34:40;27.30;5.40
7341;DHT22;6870;50.944;6.932;2023-06-14T08:37:15;27.40;5.20
7341;DHT22;6870;50.944;6.932;2023-06-14T08:39:43;27.30;4.90
7341;DHT22;6870;50.944;6.932;2023-06-14T08:42:12;27.10;4.50
7341;DHT22;6870;50.944;6.932;2023-06-14T08:44:58;27.20;4.60
7341;DHT22;6870;50.944;6.932;2023-06-14T08:47:27;26.90;4.40
7341;DHT22;6870;50.944;6.932;2023-06-14T08:49:57;26.90;4.40
7341;DHT22;6870;50.944;6.932;2023-06-14T08:52:28;27.20;4.60
7341;DHT22;6870;50.944;6.932;2023-06-14T08:55:00;27.50;4.80
7341;DHT22;6870;50.944;6.932;2023-06-14T08:57:29;27.10;4.50
7341;DHT22;6870;50.944;6.932;2023-06-14T09:00:00;27.50;4.80
7341;DHT22;6870;50.944;6.932;2023-06-14T09:02:36;27.60;4.80
7341;DHT22;6870;50.944;6.932;2023-06-14T09:05:05;27.40;4.70
7341;DHT22;6870;50.944;6.932;2023-06-14T09:07:35;27.20;4.60
7341;DHT22;6870;50.944;6.932;2023-06-14T09:10:08;27.60;4.80
7341;DHT22;6870;50.944;6.932;2023-06-14T09:12:37;27.40;4.70
7341;DHT22;6870;50.944;6.932;2023-06-14T09:15:08;27.50;4.80
7341;DHT22;6870;50.944;6.932;2023-06-14T09:17:38;27.60;4.80
7341;DHT22;6870;50.944;6.932;2023-06-14T09:20:07;27.50;4.80
7341;DHT22;6870;50.944;6.932;2023-06-14T09:22:37;27.50;4.80
7341;DHT22;6870;50.944;6.932;2023-06-14T09:25:06;27.50;4.80
7341;DHT22;6870;50.944;6.932;2023-06-14T09:27:35;27.10;4.50
7341;DHT22;6870;50.944;6.932;2023-06-14T09:30:09;27.20;4.60
7341;DHT22;6870;50.944;6.932;2023-06-14T09:32:38;27.70;4.90
7341;DHT22;6870;50.944;6.932;2023-06-14T09:35:08;27.30;4.60
7341;DHT22;6870;50.944;6.932;2023-06-14T09:37:36;27.10;4.50
7341;DHT22;6870;50.944;6.932;2023-06-14T09:40:06;27.30;4.60
7341;DHT22;6870;50.944;6.932;2023-06-14T09:42:35;27.50;4.80
7341;DHT22;6870;50.944;6.932;2023-06-14T09:45:04;27.30;4.60
7341;DHT22;6870;50.944;6.932;2023-06-14T09:47:34;27.50;4.80
7341;DHT22;6870;50.944;6.932;2023-06-14T09:50:03;27.70;4.90
7341;DHT22;6870;50.944;6.932;2023-06-14T09:52:31;27.70;4.90
7341;DHT22;6870;50.944;6.932;2023-06-14T09:55:00;27.60;4.80
7341;DHT22;6870;50.944;6.932;2023-06-14T09:57:37;27.10;4.50
7341;DHT22;6870;50.944;6.932;2023-06-14T10:00:09;27.30;4.60
7341;DHT22;6870;50.944;6.932;2023-06-14T10:02:42;27.80;5.60
7341;DHT22;6870;50.944;6.932;2023-06-14T10:05:15;27.90;5.00
7341;DHT22;6870;50.944;6.932;2023-06-14T10:07:52;27.50;4.80
7341;DHT22;6870;50.944;6.932;2023-06-14T10:10:21;27.60;4.80
7341;DHT22;6870;50.944;6.932;2023-06-14T10:12:49;27.70;4.90
7341;DHT22;6870;50.944;6.932;2023-06-14T10:15:24;27.40;4.70
7341;DHT22;6870;50.944;6.932;2023-06-14T10:17:59;27.70;4.90
7341;DHT22;6870;50.944;6.932;2023-06-14T10:20:34;27.60;4.80
7341;DHT22;6870;50.944;6.932;2023-06-14T10:23:10;27.90;5.00
7341;DHT22;6870;50.944;6.932;2023-06-14T10:25:42;27.60;5.70
7341;DHT22;6870;50.944;6.932;2023-06-14T10:28:15;27.80;5.60
7341;DHT22;6870;50.944;6.932;2023-06-14T10:31:04;27.60;4.90
7341;DHT22;6870;50.944;6.932;2023-06-14T10:33:35;27.80;5.60
7341;DHT22;6870;50.944;6.932;2023-06-14T10:36:26;27.60;5.70
7341;DHT22;6870;50.944;6.932;2023-06-14T10:38:58;27.60;6.10
7341;DHT22;6870;50.944;6.932;2023-06-14T10:41:27;27.80;6.30
7341;DHT22;6870;50.944;6.932;2023-06-14T10:44:31;27.50;6.40
7341;DHT22;6870;50.944;6.932;2023-06-14T10:47:26;27.80;6.90
7341;DHT22;6870;50.944;6.932;2023-06-14T10:50:02;27.80;7.00
7341;DHT22;6870;50.944;6.932;2023-06-14T10:52:34;27.90;6.90
7341;DHT22;6870;50.944;6.932;2023-06-14T10:55:10;28.00;7.70
7341;DHT22;6870;50.944;6.932;2023-06-14T10:57:43;27.70;7.70
7341;DHT22;6870;50.944;6.932;2023-06-14T11:00:19;27.70;7.90
7341;DHT22;6870;50.944;6.932;2023-06-14T11:05:51;27.60;7.60
7341;DHT22;6870;50.944;6.932;2023-06-14T11:08:33;28.00;7.80
7341;DHT22;6870;50.944;6.932;2023-06-14T11:11:09;28.00;7.70
7341;DHT22;6870;50.944;6.932;2023-06-14T11:13:38;28.00;7.70
7341;DHT22;6870;50.944;6.932;2023-06-14T11:16:10;27.90;7.60
7341;DHT22;6870;50.944;6.932;2023-06-14T11:18:40;27.80;7.70
7341;DHT22;6870;50.944;6.932;2023-06-14T11:21:09;27.80;7.60
7341;DHT22;6870;50.944;6.932;2023-06-14T11:23:37;28.10;7.80
7341;DHT22;6870;50.944;6.932;2023-06-14T11:26:05;27.60;7.60
7341;DHT22;6870;50.944;6.932;2023-06-14T11:28:38;28.10;8.00
7341;DHT22;6870;50.944;6.932;2023-06-14T11:31:07;28.10;8.10
7341;DHT22;6870;50.944;6.932;2023-06-14T11:33:35;27.90;8.00
7341;DHT22;6870;50.944;6.932;2023-06-14T11:36:05;27.90;8.00
7341;DHT22;6870;50.944;6.932;2023-06-14T11:38:37;27.60;7.80
7341;DHT22;6870;50.944;6.932;2023-06-14T11:41:05;28.00;8.00
7341;DHT22;6870;50.944;6.932;2023-06-14T11:43:33;28.00;8.10
7341;DHT22;6870;50.944;6.932;2023-06-14T11:46:02;28.10;8.20
7341;DHT22;6870;50.944;6.932;2023-06-14T11:48:37;27.80;8.10
7341;DHT22;6870;50.944;6.932;2023-06-14T11:51:06;28.00;8.20
7341;DHT22;6870;50.944;6.932;2023-06-14T11:53:34;28.10;8.50
7341;DHT22;6870;50.944;6.932;2023-06-14T11:56:05;28.40;8.90
7341;DHT22;6870;50.944;6.932;2023-06-14T11:58:33;28.00;8.70
7341;DHT22;6870;50.944;6.932;2023-06-14T12:01:03;27.70;8.50
7341;DHT22;6870;50.944;6.932;2023-06-14T12:03:31;28.20;8.80
7341;DHT22;6870;50.944;6.932;2023-06-14T12:06:05;28.30;8.70
7341;DHT22;6870;50.944;6.932;2023-06-14T12:08:36;28.10;8.70
7341;DHT22;6870;50.944;6.932;2023-06-14T12:11:11;28.00;8.60
7341;DHT22;6870;50.944;6.932;2023-06-14T12:13:40;28.20;8.80
7341;DHT22;6870;50.944;6.932;2023-06-14T12:16:08;27.90;8.60
7341;DHT22;6870;50.944;6.932;2023-06-14T12:18:38;27.90;8.60
7341;DHT22;6870;50.944;6.932;2023-06-14T12:21:08;28.20;8.90
7341;DHT22;6870;50.944;6.932;2023-06-14T12:23:45;27.90;8.70
7341;DHT22;6870;50.944;6.932;2023-06-14T12:26:16;28.10;8.90
7341;DHT22;6870;50.944;6.932;2023-06-14T12:28:46;28.30;9.00
7341;DHT22;6870;50.944;6.932;2023-06-14T12:31:15;28.30;8.90
7341;DHT22;6870;50.944;6.932;2023-06-14T12:33:46;28.50;9.00
7341;DHT22;6870;50.944;6.932;2023-06-14T12:36:16;28.00;8.80
7341;DHT22;6870;50.944;6.932;2023-06-14T12:38:44;28.40;9.10
7341;DHT22;6870;50.944;6.932;2023-06-14T12:41:12;28.30;9.00
7341;DHT22;6870;50.944;6.932;2023-06-14T12:43:42;28.40;9.10
7341;DHT22;6870;50.944;6.932;2023-06-14T12:46:10;28.10;9.40
7341;DHT22;6870;50.944;6.932;2023-06-14T12:48:38;28.00;8.90
7341;DHT22;6870;50.944;6.932;2023-06-14T12:51:06;28.50;9.10
7341;DHT22;6870;50.944;6.932;2023-06-14T12:53:34;28.40;8.90
7341;DHT22;6870;50.944;6.932;2023-06-14T12:56:02;28.40;9.00
7341;DHT22;6870;50.944;6.932;2023-06-14T12:58:31;28.60;9.10
7341;DHT22;6870;50.944;6.932;2023-06-14T13:00:59;28.30;9.00
7341;DHT22;6870;50.944;6.932;2023-06-14T13:03:27;28.40;9.30
7341;DHT22;6870;50.944;6.932;2023-06-14T13:05:56;28.20;9.20
7341;DHT22;6870;50.944;6.932;2023-06-14T13:08:24;28.30;9.30
7341;DHT22;6870;50.944;6.932;2023-06-14T13:10:52;28.00;9.50
7341;DHT22;6870;50.944;6.932;2023-06-14T13:13:20;28.60;9.50
7341;DHT22;6870;50.944;6.932;2023-06-14T13:15:50;28.20;9.60
7341;DHT22;6870;50.944;6.932;2023-06-14T13:18:18;28.20;9.60
7341;DHT22;6870;50.944;6.932;2023-06-14T13:20:46;28.30;9.60
7341;DHT22;6870;50.944;6.932;2023-06-14T13:23:16;28.20;9.40
7341;DHT22;6870;50.944;6.932;2023-06-14T13:25:45;28.20;9.10
7341;DHT22;6870;50.944;6.932;2023-06-14T13:28:12;28.10;9.60
7341;DHT22;6870;50.944;6.932;2023-06-14T13:30:41;28.40;9.60
7341;DHT22;6870;50.944;6.932;2023-06-14T13:33:10;28.40;9.60
7341;DHT22;6870;50.944;6.932;2023-06-14T13:35:38;28.60;9.70
7341;DHT22;6870;50.944;6.932;2023-06-14T13:38:06;28.80;9.90
7341;DHT22;6870;50.944;6.932;2023-06-14T13:40:34;28.30;9.40
7341;DHT22;6870;50.944;6.932;2023-06-14T13:43:02;28.10;9.40
7341;DHT22;6870;50.944;6.932;2023-06-14T13:45:30;28.40;9.50
7341;DHT22;6870;50.944;6.932;2023-06-14T13:47:58;28.70;9.80
7341;DHT22;6870;50.944;6.932;2023-06-14T13:50:30;28.40;10.30
7341;DHT22;6870;50.944;6.932;2023-06-14T13:52:58;28.50;9.90
7341;DHT22;6870;50.944;6.932;2023-06-14T13:55:26;28.40;9.70
7341;DHT22;6870;50.944;6.932;2023-06-14T13:57:54;28.50;9.70
7341;DHT22;6870;50.944;6.932;2023-06-14T14:00:23;28.40;10.30
7341;DHT22;6870;50.944;6.932;2023-06-14T14:02:51;28.70;10.00
7341;DHT22;6870;50.944;6.932;2023-06-14T14:05:19;28.40;9.80
7341;DHT22;6870;50.944;6.932;2023-06-14T14:07:49;28.40;9.80
7341;DHT22;6870;50.944;6.932;2023-06-14T14:10:18;28.50;9.70
7341;DHT22;6870;50.944;6.932;2023-06-14T14:12:47;28.50;9.70
7341;DHT22;6870;50.944;6.932;2023-06-14T14:15:15;28.40;9.60
7341;DHT22;6870;50.944;6.932;2023-06-14T14:17:43;28.50;9.60
7341;DHT22;6870;50.944;6.932;2023-06-14T14:20:11;28.50;9.80
7341;DHT22;6870;50.944;6.932;2023-06-14T14:22:42;28.10;9.60
7341;DHT22;6870;50.944;6.932;2023-06-14T14:25:12;28.40;9.70
7341;DHT22;6870;50.944;6.932;2023-06-14T14:27:40;28.60;9.70
7341;DHT22;6870;50.944;6.932;2023-06-14T14:30:09;28.40;9.70
7341;DHT22;6870;50.944;6.932;2023-06-14T14:32:37;28.40;9.80
7341;DHT22;6870;50.944;6.932;2023-06-14T14:35:07;28.80;10.00
7341;DHT22;6870;50.944;6.932;2023-06-14T14:37:35;28.20;9.90
7341;DHT22;6870;50.944;6.932;2023-06-14T14:40:04;28.10;9.90
7341;DHT22;6870;50.944;6.932;2023-06-14T14:42:35;28.20;10.00
7341;DHT22;6870;50.944;6.932;2023-06-14T14:45:04;28.20;9.80
7341;DHT22;6870;50.944;6.932;2023-06-14T14:47:33;28.30;9.70
7341;DHT22;6870;50.944;6.932;2023-06-14T14:50:01;28.20;9.60
7341;DHT22;6870;50.944;6.932;2023-06-14T14:52:29;28.50;9.80
7341;DHT22;6870;50.944;6.932;2023-06-14T14:54:57;28.00;9.60
7341;DHT22;6870;50.944;6.932;2023-06-14T14:57:25;28.00;9.70
7341;DHT22;6870;50.944;6.932;2023-06-14T14:59:54;28.10;9.90
7341;DHT22;6870;50.944;6.932;2023-06-14T15:02:22;28.20;9.90
7341;DHT22;6870;50.944;6.932;2023-06-14T15:04:50;28.20;9.70
7341;DHT22;6870;50.944;6.932;2023-06-14T15:07:18;28.30;9.90
7341;DHT22;6870;50.944;6.932;2023-06-14T15:09:46;28.10;9.70
7341;DHT22;6870;50.944;6.932;2023-06-14T15:12:17;28.20;10.10
7341;DHT22;6870;50.944;6.932;2023-06-14T15:14:46;28.10;10.00
7341;DHT22;6870;50.944;6.932;2023-06-14T15:17:15;28.00;10.00
7341;DHT22;6870;50.944;6.932;2023-06-14T15:19:45;28.10;10.20
7341;DHT22;6870;50.944;6.932;2023-06-14T15:22:14;28.20;10.40
7341;DHT22;6870;50.944;6.932;2023-06-14T15:24:43;28.30;10.70
7341;DHT22;6870;50.944;6.932;2023-06-14T15:27:15;28.20;10.70
7341;DHT22;6870;50.944;6.932;2023-06-14T15:29:43;27.90;11.20
7341;DHT22;6870;50.944;6.932;2023-06-14T15:32:16;28.10;10.60
7341;DHT22;6870;50.944;6.932;2023-06-14T15:34:44;28.00;10.60
7341;DHT22;6870;50.944;6.932;2023-06-14T15:37:12;28.20;10.70
7341;DHT22;6870;50.944;6.932;2023-06-14T15:39:40;28.40;10.80
7341;DHT22;6870;50.944;6.932;2023-06-14T15:42:09;28.20;10.70
7341;DHT22;6870;50.944;6.932;2023-06-14T15:44:38;28.10;10.60
7341;DHT22;6870;50.944;6.932;2023-06-14T15:47:08;28.00;10.60
7341;DHT22;6870;50.944;6.932;2023-06-14T15:49:37;28.10;10.60
7341;DHT22;6870;50.944;6.932;2023-06-14T15:52:06;28.10;10.70
7341;DHT22;6870;50.944;6.932;2023-06-14T15:54:35;28.10;10.70
7341;DHT22;6870;50.944;6.932;2023-06-14T15:57:03;28.20;10.70
7341;DHT22;6870;50.944;6.932;2023-06-14T15:59:31;28.10;10.60
7341;DHT22;6870;50.944;6.932;2023-06-14T16:01:59;28.30;10.70
7341;DHT22;6870;50.944;6.932;2023-06-14T16:04:27;28.40;10.80
7341;DHT22;6870;50.944;6.932;2023-06-14T16:06:57;28.30;10.70
7341;DHT22;6870;50.944;6.932;2023-06-14T16:09:25;28.00;10.30
7341;DHT22;6870;50.944;6.932;2023-06-14T16:11:53;28.20;10.50
7341;DHT22;6870;50.944;6.932;2023-06-14T16:14:21;28.20;10.70
7341;DHT22;6870;50.944;6.932;2023-06-14T16:16:49;28.10;10.40
7341;DHT22;6870;50.944;6.932;2023-06-14T16:19:19;28.20;10.10
7341;DHT22;6870;50.944;6.932;2023-06-14T16:21:47;28.20;10.00
7341;DHT22;6870;50.944;6.932;2023-06-14T16:24:17;28.20;10.30
7341;DHT22;6870;50.944;6.932;2023-06-14T16:26:46;28.20;9.90
7341;DHT22;6870;50.944;6.932;2023-06-14T16:29:14;28.40;10.00